Time;durP1;ratioP1;P1;durP2;ratioP2;P2;SDS_P1;SDS_P2;PMS_P1;PMS_P2;Temp;Humidity;BMP_temperature;BMP_pressure;BME280_temperature;BME280_humidity;BME280_pressure;Samples;Min_cycle;Max_cycle;Signal;HPM_P1;HPM_P2
2023/11/21 00:01:27;;;;;;;3.75;1.85;;;;;;;;;;5002816;28;20049;-70
2023/11/21 00:03:55;;;;;;;8.38;2.92;;;;;;;;;;5006985;28;20030;-71
2023/11/21 00:06:20;;;;;;;6.88;2.22;;;;;;;;;;4993721;28;20037;-72
2023/11/21 00:08:46;;;;;;;4.78;2.20;;;;;;;;;;5013981;28;20034;-72
2023/11/21 00:11:11;;;;;;;3.85;2.35;;;;;;;;;;5013706;28;20053;-70
2023/11/21 00:13:37;;;;;;;4.35;1.85;;;;;;;;;;5012972;28;20037;-71
2023/11/21 00:16:04;;;;;;;5.63;1.92;;;;;;;;;;5011339;28;20030;-70
2023/11/21 00:18:29;;;;;;;4.50;1.80;;;;;;;;;;5011434;28;20041;-73
2023/11/21 00:20:55;;;;;;;5.57;2.10;;;;;;;;;;5012793;28;20462;-75
2023/11/21 00:23:20;;;;;;;3.55;2.30;;;;;;;;;;5011091;28;20030;-74
2023/11/21 00:25:46;;;;;;;4.80;2.33;;;;;;;;;;5010944;28;20026;-73
2023/11/21 00:28:12;;;;;;;4.80;1.95;;;;;;;;;;4999466;28;20037;-76
2023/11/21 00:30:37;;;;;;;5.20;2.55;;;;;;;;;;4992509;28;20030;-75
2023/11/21 00:33:04;;;;;;;3.20;1.70;;;;;;;;;;5002314;28;20026;-73
2023/11/21 00:35:29;;;;;;;7.47;2.30;;;;;;;;;;4992133;28;20038;-75
2023/11/21 00:37:55;;;;;;;4.15;1.90;;;;;;;;;;5005358;28;20033;-74
2023/11/21 00:40:22;;;;;;;4.55;2.33;;;;;;;;;;5012403;28;20093;-75
2023/11/21 00:42:47;;;;;;;5.18;1.70;;;;;;;;;;5010922;28;20037;-76
2023/11/21 00:45:13;;;;;;;4.45;2.20;;;;;;;;;;5013342;28;20103;-76
2023/11/21 00:47:38;;;;;;;4.97;1.77;;;;;;;;;;5021498;28;20037;-76
2023/11/21 00:50:06;;;;;;;3.35;2.17;;;;;;;;;;5032061;28;20033;-74
2023/11/21 00:52:32;;;;;;;6.82;2.05;;;;;;;;;;5029905;28;20447;-73
2023/11/21 00:54:59;;;;;;;5.05;2.40;;;;;;;;;;5031246;28;20038;-74
2023/11/21 00:57:28;;;;;;;6.30;2.35;;;;;;;;;;5013029;28;20032;-75
2023/11/21 00:59:54;;;;;;;6.22;1.88;;;;;;;;;;4992435;28;20030;-75
2023/11/21 01:02:19;;;;;;;8.45;2.58;;;;;;;;;;5003700;28;20378;-77
2023/11/21 01:04:45;;;;;;;4.55;2.40;;;;;;;;;;4990557;28;20042;-74
2023/11/21 01:07:10;;;;;;;5.70;2.30;;;;;;;;;;4996273;28;20168;-76
2023/11/21 01:09:36;;;;;;;7.95;3.08;;;;;;;;;;5007624;28;20101;-76
2023/11/21 01:12:02;;;;;;;6.53;2.95;;;;;;;;;;4991036;28;20058;-75
2023/11/21 01:14:27;;;;;;;5.80;2.20;;;;;;;;;;4990018;28;20027;-74
2023/11/21 01:16:53;;;;;;;4.40;2.55;;;;;;;;;;4994228;28;20034;-75
2023/11/21 01:19:19;;;;;;;3.13;2.38;;;;;;;;;;5026430;28;20435;-74
2023/11/21 01:21:47;;;;;;;3.88;2.10;;;;;;;;;;5011611;28;20045;-75
2023/11/21 01:24:13;;;;;;;6.20;1.95;;;;;;;;;;5002264;28;20109;-74
2023/11/21 01:26:38;;;;;;;5.18;2.00;;;;;;;;;;4990126;28;20026;-73
2023/11/21 01:29:04;;;;;;;8.32;2.05;;;;;;;;;;5009814;28;20045;-73
2023/11/21 01:31:29;;;;;;;4.80;2.10;;;;;;;;;;5010914;28;20029;-73
2023/11/21 01:33:56;;;;;;;4.32;1.90;;;;;;;;;;5011371;28;20038;-75
2023/11/21 01:36:21;;;;;;;2.75;1.73;;;;;;;;;;5009293;28;20033;-74
2023/11/21 01:38:48;;;;;;;4.78;1.95;;;;;;;;;;5002328;28;20077;-72
2023/11/21 01:41:14;;;;;;;1.88;1.60;;;;;;;;;;4989663;28;20151;-73
2023/11/21 01:43:41;;;;;;;2.33;1.83;;;;;;;;;;5000868;28;20035;-74
2023/11/21 01:46:08;;;;;;;3.20;1.98;;;;;;;;;;4991503;28;20034;-75
2023/11/21 01:48:34;;;;;;;4.65;2.17;;;;;;;;;;5013112;28;20038;-73
2023/11/21 01:51:00;;;;;;;4.80;1.75;;;;;;;;;;5016318;28;20092;-71
2023/11/21 01:53:26;;;;;;;5.40;1.85;;;;;;;;;;5001087;28;20122;-75
2023/11/21 01:55:53;;;;;;;5.43;2.13;;;;;;;;;;4993979;28;20447;-74
2023/11/21 01:58:20;;;;;;;2.45;1.50;;;;;;;;;;5001982;28;20033;-72
2023/11/21 02:00:45;;;;;;;10.43;2.13;;;;;;;;;;4992926;28;20408;-73
2023/11/21 02:03:12;;;;;;;5.25;1.58;;;;;;;;;;5008943;28;20323;-74
2023/11/21 02:05:37;;;;;;;3.20;1.70;;;;;;;;;;5009088;28;20029;-73
2023/11/21 02:08:04;;;;;;;3.05;1.98;;;;;;;;;;5018779;28;20175;-75
2023/11/21 02:10:30;;;;;;;3.15;1.80;;;;;;;;;;5028192;28;20049;-74
2023/11/21 02:12:56;;;;;;;7.85;2.30;;;;;;;;;;5029670;28;20242;-73
2023/11/21 02:15:23;;;;;;;4.82;1.70;;;;;;;;;;4996677;28;20045;-72
2023/11/21 02:17:50;;;;;;;4.38;1.65;;;;;;;;;;4995022;28;20029;-74
2023/11/21 02:20:18;;;;;;;4.72;1.80;;;;;;;;;;4991125;28;20033;-73
2023/11/21 02:22:57;;;;;;;4.50;1.80;;;;;;;;;;4991534;28;20034;-73
2023/11/21 02:25:24;;;;;;;4.88;2.05;;;;;;;;;;4990648;28;20093;-74
2023/11/21 02:27:51;;;;;;;5.10;1.60;;;;;;;;;;4997299;28;20026;-74
2023/11/21 02:30:17;;;;;;;3.55;1.67;;;;;;;;;;4994352;28;20037;-75
2023/11/21 02:32:43;;;;;;;4.30;1.90;;;;;;;;;;5000363;28;20026;-74
2023/11/21 02:35:09;;;;;;;5.20;1.70;;;;;;;;;;5028308;28;20037;-73
2023/11/21 02:37:35;;;;;;;3.92;1.58;;;;;;;;;;5027954;28;20037;-74
2023/11/21 02:40:04;;;;;;;5.25;1.77;;;;;;;;;;5028132;28;20604;-74
2023/11/21 02:42:29;;;;;;;2.08;1.80;;;;;;;;;;5027309;28;20029;-73
2023/11/21 02:44:56;;;;;;;4.13;1.95;;;;;;;;;;5006656;28;20041;-72
2023/11/21 02:47:23;;;;;;;2.40;1.70;;;;;;;;;;4991467;28;20053;-73
2023/11/21 02:49:48;;;;;;;2.38;1.70;;;;;;;;;;5010053;28;20447;-73
2023/11/21 02:52:14;;;;;;;8.25;2.42;;;;;;;;;;5007991;28;20026;-71
2023/11/21 02:54:39;;;;;;;6.55;1.80;;;;;;;;;;4989723;28;20065;-73
2023/11/21 02:57:05;;;;;;;4.63;1.98;;;;;;;;;;4989626;28;20391;-73
2023/11/21 02:59:31;;;;;;;5.53;1.77;;;;;;;;;;5017101;28;20111;-75
2023/11/21 03:01:57;;;;;;;5.85;1.98;;;;;;;;;;4995932;28;20180;-73
2023/11/21 03:04:22;;;;;;;7.68;2.38;;;;;;;;;;5006683;28;20465;-73
2023/11/21 03:06:48;;;;;;;3.75;2.00;;;;;;;;;;5007795;28;20083;-72
2023/11/21 03:09:13;;;;;;;2.03;1.65;;;;;;;;;;5006627;28;20133;-74
2023/11/21 03:11:39;;;;;;;4.60;1.75;;;;;;;;;;5008806;28;20125;-72
2023/11/21 03:14:05;;;;;;;2.38;1.90;;;;;;;;;;5010434;28;20069;-74
2023/11/21 03:16:31;;;;;;;3.97;1.90;;;;;;;;;;5007477;28;20042;-74
2023/11/21 03:18:57;;;;;;;2.95;1.52;;;;;;;;;;5008039;28;20041;-73
2023/11/21 03:21:23;;;;;;;3.28;2.42;;;;;;;;;;5009239;28;20030;-75
2023/11/21 03:23:48;;;;;;;3.60;2.08;;;;;;;;;;5008104;28;20034;-75
2023/11/21 03:26:14;;;;;;;2.38;1.42;;;;;;;;;;5009092;28;20034;-74
2023/11/21 03:28:39;;;;;;;2.65;1.40;;;;;;;;;;5006522;28;20107;-74
2023/11/21 03:31:06;;;;;;;4.18;1.90;;;;;;;;;;5006109;28;20030;-73
2023/11/21 03:33:32;;;;;;;3.30;2.00;;;;;;;;;;5015202;28;20033;-73
2023/11/21 03:35:58;;;;;;;6.05;2.08;;;;;;;;;;5028515;28;20061;-73
2023/11/21 03:38:23;;;;;;;2.05;1.80;;;;;;;;;;5023428;28;20063;-74
2023/11/21 03:40:50;;;;;;;4.78;2.65;;;;;;;;;;5007403;28;20397;-72
2023/11/21 03:43:16;;;;;;;2.72;1.73;;;;;;;;;;5008616;28;20022;-73
2023/11/21 03:45:41;;;;;;;4.63;1.95;;;;;;;;;;5006173;28;20427;-71
2023/11/21 03:48:08;;;;;;;4.90;1.77;;;;;;;;;;4994294;28;20113;-74
2023/11/21 03:50:34;;;;;;;4.30;2.33;;;;;;;;;;4990898;28;20540;-74
2023/11/21 03:53:00;;;;;;;3.25;1.60;;;;;;;;;;5014481;28;20033;-74
2023/11/21 03:55:26;;;;;;;5.50;2.15;;;;;;;;;;5026814;28;20083;-75
2023/11/21 03:57:52;;;;;;;2.88;1.88;;;;;;;;;;5011248;28;20064;-73
2023/11/21 04:00:19;;;;;;;4.78;1.67;;;;;;;;;;5007212;28;20033;-74
2023/11/21 04:02:45;;;;;;;2.00;1.50;;;;;;;;;;5020000;28;20047;-74
2023/11/21 04:05:11;;;;;;;8.02;2.00;;;;;;;;;;5001600;28;20034;-73
2023/11/21 04:07:38;;;;;;;5.18;1.52;;;;;;;;;;5003898;28;20034;-74
2023/11/21 04:10:08;;;;;;;8.13;1.83;;;;;;;;;;5007114;28;20049;-74
2023/11/21 04:12:33;;;;;;;4.88;1.58;;;;;;;;;;5007567;28;20139;-73
2023/11/21 04:14:59;;;;;;;9.80;2.30;;;;;;;;;;5007051;28;20081;-74
2023/11/21 04:17:24;;;;;;;1.60;1.50;;;;;;;;;;5007572;28;20125;-73
2023/11/21 04:19:50;;;;;;;4.30;1.65;;;;;;;;;;4992875;28;20044;-73
2023/11/21 04:22:15;;;;;;;3.60;1.73;;;;;;;;;;5003071;28;20045;-75
2023/11/21 04:24:41;;;;;;;6.03;1.92;;;;;;;;;;4996486;28;20042;-73
2023/11/21 04:27:07;;;;;;;4.75;1.77;;;;;;;;;;4997699;28;20450;-74
2023/11/21 04:29:33;;;;;;;2.58;1.60;;;;;;;;;;5006865;28;20486;-74
2023/11/21 04:31:58;;;;;;;3.53;1.70;;;;;;;;;;5008543;28;20040;-75
2023/11/21 04:34:24;;;;;;;8.23;1.73;;;;;;;;;;4993945;28;20499;-75
2023/11/21 04:36:50;;;;;;;4.40;2.03;;;;;;;;;;4994339;28;20038;-74
2023/11/21 04:39:15;;;;;;;4.68;2.08;;;;;;;;;;5007815;28;20429;-73
2023/11/21 04:41:41;;;;;;;3.47;2.20;;;;;;;;;;5010207;28;20033;-74
2023/11/21 04:44:06;;;;;;;10.00;2.42;;;;;;;;;;5010305;28;20056;-74
2023/11/21 04:46:32;;;;;;;4.55;1.77;;;;;;;;;;5010590;28;20092;-74
2023/11/21 04:48:58;;;;;;;9.35;1.90;;;;;;;;;;5002669;28;20048;-73
2023/11/21 04:51:24;;;;;;;5.68;1.80;;;;;;;;;;4993196;28;20391;-74
2023/11/21 04:53:49;;;;;;;3.78;2.00;;;;;;;;;;5011246;28;20033;-73
2023/11/21 04:56:16;;;;;;;3.58;2.05;;;;;;;;;;5011795;28;20470;-73
2023/11/21 04:58:41;;;;;;;8.23;2.70;;;;;;;;;;5011388;28;20483;-74
2023/11/21 05:01:07;;;;;;;6.03;2.13;;;;;;;;;;5003451;28;20153;-73
2023/11/21 05:03:33;;;;;;;2.17;1.60;;;;;;;;;;5009863;28;20458;-73
2023/11/21 05:06:00;;;;;;;9.27;2.85;;;;;;;;;;4990678;28;20257;-75
2023/11/21 05:08:26;;;;;;;5.88;2.03;;;;;;;;;;5009821;28;20029;-75
2023/11/21 05:10:53;;;;;;;3.83;1.70;;;;;;;;;;5011516;28;20050;-74
2023/11/21 05:13:20;;;;;;;5.97;2.28;;;;;;;;;;5011187;28;20510;-73
2023/11/21 05:15:46;;;;;;;6.78;2.38;;;;;;;;;;5008403;28;20476;-74
2023/11/21 05:18:13;;;;;;;5.28;1.90;;;;;;;;;;5007523;28;20033;-76
2023/11/21 05:20:43;;;;;;;5.38;1.95;;;;;;;;;;4991221;28;20121;-75
2023/11/21 05:23:09;;;;;;;2.15;1.58;;;;;;;;;;5022563;28;20117;-75
2023/11/21 05:25:35;;;;;;;8.43;2.03;;;;;;;;;;5031038;28;20112;-76
2023/11/21 05:28:03;;;;;;;4.55;1.73;;;;;;;;;;5045735;28;20080;-74
2023/11/21 05:30:29;;;;;;;4.80;1.80;;;;;;;;;;5023787;28;20021;-73
2023/11/21 05:32:55;;;;;;;4.57;1.58;;;;;;;;;;4999706;28;20084;-74
2023/11/21 05:35:21;;;;;;;8.20;2.28;;;;;;;;;;4991187;28;20448;-75
2023/11/21 05:37:47;;;;;;;7.93;2.08;;;;;;;;;;5002269;28;20030;-73
2023/11/21 05:40:13;;;;;;;5.25;1.98;;;;;;;;;;5011305;28;20107;-75
2023/11/21 05:42:40;;;;;;;3.13;1.90;;;;;;;;;;5009736;28;20563;-74
2023/11/21 05:45:10;;;;;;;5.63;2.17;;;;;;;;;;4992684;28;20045;-72
2023/11/21 05:47:40;;;;;;;5.88;1.60;;;;;;;;;;5012544;28;20042;-70
2023/11/21 05:50:10;;;;;;;10.27;2.33;;;;;;;;;;4999784;28;20548;-71
2023/11/21 05:52:37;;;;;;;3.45;1.35;;;;;;;;;;4999933;28;20044;-72
2023/11/21 05:55:07;;;;;;;4.70;1.80;;;;;;;;;;5009525;28;20037;-70
2023/11/21 05:57:32;;;;;;;2.53;1.73;;;;;;;;;;5010283;28;20111;-71
2023/11/21 05:59:58;;;;;;;3.55;1.65;;;;;;;;;;4998731;28;20038;-71
2023/11/21 06:02:23;;;;;;;3.92;1.60;;;;;;;;;;5006256;28;20105;-70
2023/11/21 06:04:49;;;;;;;7.45;2.22;;;;;;;;;;5001782;28;20110;-72
2023/11/21 06:07:14;;;;;;;13.65;2.28;;;;;;;;;;4994477;28;20045;-72
2023/11/21 06:09:40;;;;;;;8.95;2.17;;;;;;;;;;5008404;28;20495;-72
2023/11/21 06:12:06;;;;;;;5.72;1.83;;;;;;;;;;5013460;28;20260;-72
2023/11/21 06:14:35;;;;;;;7.97;2.30;;;;;;;;;;5014380;28;20034;-71
2023/11/21 06:17:01;;;;;;;4.57;1.70;;;;;;;;;;5008443;28;20041;-71
2023/11/21 06:19:26;;;;;;;5.00;2.15;;;;;;;;;;5005856;28;20044;-71
2023/11/21 06:21:51;;;;;;;4.25;2.00;;;;;;;;;;4991432;28;20027;-71
2023/11/21 06:24:17;;;;;;;9.30;2.45;;;;;;;;;;5009260;28;20030;-70
2023/11/21 06:26:44;;;;;;;7.90;2.55;;;;;;;;;;5009583;28;20034;-72
2023/11/21 06:29:10;;;;;;;7.50;1.85;;;;;;;;;;5008578;28;20315;-71
2023/11/21 06:31:36;;;;;;;7.22;3.20;;;;;;;;;;5008346;28;20334;-74
2023/11/21 06:34:03;;;;;;;6.07;2.05;;;;;;;;;;5008605;28;20063;-72
2023/11/21 06:36:28;;;;;;;10.48;3.83;;;;;;;;;;4974511;28;20050;-71
2023/11/21 06:38:55;;;;;;;3.28;2.25;;;;;;;;;;5007120;28;20466;-71
2023/11/21 06:41:20;;;;;;;3.50;1.70;;;;;;;;;;5007166;28;20029;-72
2023/11/21 06:43:46;;;;;;;5.93;1.77;;;;;;;;;;5009114;28;20117;-71
2023/11/21 06:46:14;;;;;;;6.63;1.80;;;;;;;;;;5007378;28;20390;-72
2023/11/21 06:48:43;;;;;;;7.40;1.92;;;;;;;;;;5008213;28;20041;-71
2023/11/21 06:51:09;;;;;;;3.63;2.03;;;;;;;;;;5008898;28;20091;-72
2023/11/21 06:53:37;;;;;;;6.35;1.77;;;;;;;;;;5009873;28;20034;-72
2023/11/21 06:56:03;;;;;;;3.78;1.98;;;;;;;;;;5006998;28;20112;-71
2023/11/21 06:58:29;;;;;;;6.32;2.22;;;;;;;;;;5014365;28;20050;-71
2023/11/21 07:00:54;;;;;;;4.10;1.90;;;;;;;;;;5016965;28;20493;-72
2023/11/21 07:03:20;;;;;;;2.78;2.00;;;;;;;;;;5013451;28;20033;-72
2023/11/21 07:05:46;;;;;;;3.70;1.80;;;;;;;;;;5028800;28;20064;-71
2023/11/21 07:08:14;;;;;;;5.00;2.45;;;;;;;;;;5042757;28;20110;-71
2023/11/21 07:10:40;;;;;;;27.38;4.50;;;;;;;;;;5020699;28;20416;-71
2023/11/21 07:13:06;;;;;;;5.78;2.15;;;;;;;;;;5016153;28;20034;-70
2023/11/21 07:15:34;;;;;;;8.02;2.60;;;;;;;;;;5010714;28;20037;-70
2023/11/21 07:18:00;;;;;;;4.43;2.63;;;;;;;;;;5008484;28;20061;-70
2023/11/21 07:20:30;;;;;;;4.40;2.40;;;;;;;;;;4998971;28;20041;-72
2023/11/21 07:22:57;;;;;;;5.13;2.08;;;;;;;;;;5019091;28;20392;-71
2023/11/21 07:25:27;;;;;;;6.13;2.00;;;;;;;;;;5024107;28;20041;-70
2023/11/21 07:27:56;;;;;;;2.70;1.80;;;;;;;;;;5016240;28;20036;-71
2023/11/21 07:30:22;;;;;;;3.40;2.40;;;;;;;;;;5009273;28;20083;-69
2023/11/21 07:33:00;;;;;;;5.50;2.75;;;;;;;;;;5006733;28;20053;-71
2023/11/21 07:35:31;;;;;;;3.38;2.40;;;;;;;;;;5016993;28;20109;-70
2023/11/21 07:37:59;;;;;;;3.22;1.80;;;;;;;;;;5009224;28;20151;-76
2023/11/21 07:40:27;;;;;;;3.38;2.08;;;;;;;;;;5010619;28;20064;-71
2023/11/21 07:42:57;;;;;;;6.60;2.40;;;;;;;;;;5003737;28;20029;-69
2023/11/21 07:45:27;;;;;;;9.10;2.60;;;;;;;;;;5003871;28;20041;-70
2023/11/21 07:47:55;;;;;;;3.83;2.10;;;;;;;;;;5007797;28;20060;-71
2023/11/21 07:50:22;;;;;;;8.98;3.35;;;;;;;;;;5026412;28;20038;-72
2023/11/21 07:52:56;;;;;;;4.05;2.53;;;;;;;;;;5009190;28;20136;-71
2023/11/21 07:55:22;;;;;;;6.43;2.60;;;;;;;;;;5006316;28;20029;-72
2023/11/21 07:57:48;;;;;;;6.80;1.98;;;;;;;;;;5016247;28;20048;-71
2023/11/21 08:00:15;;;;;;;11.18;3.97;;;;;;;;;;5004458;28;20482;-70
2023/11/21 08:02:42;;;;;;;8.27;2.58;;;;;;;;;;5004887;28;20038;-72
2023/11/21 08:05:08;;;;;;;9.85;2.65;;;;;;;;;;5005872;28;20466;-71
2023/11/21 08:07:36;;;;;;;4.95;2.35;;;;;;;;;;5018827;28;20307;-71
2023/11/21 08:10:04;;;;;;;5.75;2.28;;;;;;;;;;5008537;28;20108;-70
2023/11/21 08:12:35;;;;;;;3.15;1.67;;;;;;;;;;5005131;28;20061;-70
2023/11/21 08:15:05;;;;;;;8.57;2.45;;;;;;;;;;5006946;28;20053;-70
2023/11/21 08:17:33;;;;;;;7.25;2.40;;;;;;;;;;5013608;28;20487;-69
2023/11/21 08:20:02;;;;;;;3.90;2.35;;;;;;;;;;5007560;28;20041;-70
2023/11/21 08:22:27;;;;;;;2.78;1.77;;;;;;;;;;5026328;28;20034;-69
2023/11/21 08:25:00;;;;;;;4.43;1.85;;;;;;;;;;5010095;28;20242;-70
2023/11/21 08:27:26;;;;;;;4.65;1.83;;;;;;;;;;5007137;28;20034;-71
2023/11/21 08:29:54;;;;;;;3.15;2.17;;;;;;;;;;5008640;28;20032;-70
2023/11/21 08:32:23;;;;;;;4.50;2.38;;;;;;;;;;5008445;28;20034;-70
2023/11/21 08:34:51;;;;;;;3.95;1.90;;;;;;;;;;5015466;28;20037;-69
2023/11/21 08:37:18;;;;;;;5.55;1.52;;;;;;;;;;5006421;28;20025;-72
2023/11/21 08:39:45;;;;;;;3.00;2.20;;;;;;;;;;5008074;28;20068;-68
2023/11/21 08:42:11;;;;;;;3.92;1.90;;;;;;;;;;5002590;28;20125;-71
2023/11/21 08:44:38;;;;;;;4.40;2.10;;;;;;;;;;5006368;28;20026;-70
2023/11/21 08:47:05;;;;;;;5.57;2.13;;;;;;;;;;5002097;28;20040;-69
2023/11/21 08:49:33;;;;;;;4.75;2.20;;;;;;;;;;5010205;28;20556;-69
2023/11/21 08:52:11;;;;;;;6.82;2.60;;;;;;;;;;5015019;28;21359;-69
2023/11/21 08:54:44;;;;;;;2.28;1.75;;;;;;;;;;4997770;28;20508;-69
2023/11/21 08:57:23;;;;;;;5.45;1.67;;;;;;;;;;4997107;28;20446;-69
2023/11/21 08:59:58;;;;;;;2.20;1.65;;;;;;;;;;5000246;28;20038;-70
2023/11/21 09:02:28;;;;;;;31.77;6.68;;;;;;;;;;5007082;28;20437;-70
2023/11/21 09:05:05;;;;;;;4.53;2.42;;;;;;;;;;5007205;28;20042;-70
2023/11/21 09:07:52;;;;;;;3.75;1.83;;;;;;;;;;5006731;28;20486;-70
2023/11/21 09:10:25;;;;;;;5.32;2.60;;;;;;;;;;5007649;28;20038;-72
2023/11/21 09:12:53;;;;;;;5.20;2.30;;;;;;;;;;5005307;28;20034;-70
2023/11/21 09:15:20;;;;;;;7.55;3.70;;;;;;;;;;5021081;28;20111;-69
2023/11/21 09:17:58;;;;;;;11.52;4.30;;;;;;;;;;5016579;28;20056;-72
2023/11/21 09:20:28;;;;;;;6.03;2.60;;;;;;;;;;5013515;28;20045;-71
2023/11/21 09:22:57;;;;;;;8.48;2.70;;;;;;;;;;5027697;28;20044;-70
2023/11/21 09:25:25;;;;;;;3.88;2.33;;;;;;;;;;5013085;28;20025;-70
2023/11/21 09:27:51;;;;;;;5.60;2.60;;;;;;;;;;5005808;28;20026;-69
2023/11/21 09:30:17;;;;;;;6.40;2.75;;;;;;;;;;5013154;28;20022;-71
2023/11/21 09:32:49;;;;;;;4.63;2.58;;;;;;;;;;5013054;28;20031;-69
2023/11/21 09:35:19;;;;;;;5.60;3.00;;;;;;;;;;5020728;28;20037;-70
2023/11/21 09:37:45;;;;;;;7.90;3.08;;;;;;;;;;5029022;28;20038;-70
2023/11/21 09:40:17;;;;;;;5.35;2.50;;;;;;;;;;5011989;28;20033;-70
2023/11/21 09:43:04;;;;;;;6.85;3.15;;;;;;;;;;5007567;28;20030;-72
2023/11/21 09:45:39;;;;;;;8.30;2.88;;;;;;;;;;5024124;28;20029;-71
2023/11/21 09:48:07;;;;;;;3.38;2.60;;;;;;;;;;5007517;28;20052;-73
2023/11/21 09:50:36;;;;;;;5.43;2.65;;;;;;;;;;5001356;28;20026;-70
2023/11/21 09:53:14;;;;;;;11.65;3.10;;;;;;;;;;5010053;28;20132;-73
2023/11/21 09:55:43;;;;;;;10.73;3.78;;;;;;;;;;5010689;28;20367;-71
2023/11/21 09:58:19;;;;;;;2.97;2.45;;;;;;;;;;5014806;28;20029;-70
2023/11/21 10:00:53;;;;;;;5.60;3.00;;;;;;;;;;5022660;28;20025;-71
2023/11/21 10:03:24;;;;;;;21.85;4.43;;;;;;;;;;5008440;28;20034;-70
2023/11/21 10:05:56;;;;;;;7.03;2.90;;;;;;;;;;5020112;28;20029;-69
2023/11/21 10:08:28;;;;;;;5.22;2.35;;;;;;;;;;5012430;28;20029;-71
2023/11/21 10:10:56;;;;;;;5.95;2.70;;;;;;;;;;5004058;28;20128;-69
2023/11/21 10:13:30;;;;;;;6.80;3.00;;;;;;;;;;5006331;28;20033;-68
2023/11/21 10:15:58;;;;;;;4.57;2.83;;;;;;;;;;5020108;28;20105;-69
2023/11/21 10:18:26;;;;;;;6.85;2.65;;;;;;;;;;5002447;28;20030;-70
2023/11/21 10:20:54;;;;;;;3.42;2.63;;;;;;;;;;5012664;28;20033;-72
2023/11/21 10:23:22;;;;;;;7.40;2.95;;;;;;;;;;5008305;28;20521;-69
2023/11/21 10:25:53;;;;;;;6.22;2.85;;;;;;;;;;5010391;28;20025;-69
2023/11/21 10:28:20;;;;;;;3.42;2.70;;;;;;;;;;5008929;28;20514;-69
2023/11/21 10:30:49;;;;;;;10.32;3.72;;;;;;;;;;5006001;28;20482;-69
2023/11/21 10:33:15;;;;;;;9.05;3.20;;;;;;;;;;5004399;28;20082;-70
2023/11/21 10:35:54;;;;;;;5.38;2.75;;;;;;;;;;5009804;28;20120;-70
2023/11/21 10:38:23;;;;;;;5.30;2.20;;;;;;;;;;5003157;28;20040;-68
2023/11/21 10:40:55;;;;;;;6.05;3.05;;;;;;;;;;5003481;28;20091;-72
2023/11/21 10:43:24;;;;;;;;;;;;;;;;;;5004099;28;20065;-71
2023/11/21 10:45:50;;;;;;;6.22;2.72;;;;;;;;;;5002670;28;20004;-71
2023/11/21 10:48:18;;;;;;;8.82;2.42;;;;;;;;;;5014568;28;20083;-71
2023/11/21 10:50:46;;;;;;;3.95;2.78;;;;;;;;;;5008139;28;20034;-71
2023/11/21 10:53:14;;;;;;;19.80;3.60;;;;;;;;;;5010365;28;20298;-69
2023/11/21 10:55:49;;;;;;;29.38;5.32;;;;;;;;;;5003233;28;20065;-72
2023/11/21 10:58:20;;;;;;;5.45;2.80;;;;;;;;;;5008319;28;20022;-72
2023/11/21 11:00:46;;;;;;;7.07;2.55;;;;;;;;;;5026350;28;20072;-70
2023/11/21 11:03:14;;;;;;;8.23;3.70;;;;;;;;;;5015990;28;20034;-70
2023/11/21 11:05:51;;;;;;;2.88;2.20;;;;;;;;;;5021484;28;20042;-69
2023/11/21 11:08:26;;;;;;;3.97;2.38;;;;;;;;;;5005680;28;20030;-71
2023/11/21 11:11:02;;;;;;;3.13;1.95;;;;;;;;;;5017393;28;20152;-70
2023/11/21 11:13:28;;;;;;;31.40;14.43;;;;;;;;;;5007177;28;20037;-72
2023/11/21 11:16:06;;;;;;;7.30;2.80;;;;;;;;;;5015751;28;20026;-73
2023/11/21 11:18:34;;;;;;;4.63;2.42;;;;;;;;;;5026751;28;20105;-71
2023/11/21 11:21:39;;;;;;;4.85;2.45;;;;;;;;;;5023464;28;20189;-70
2023/11/21 11:24:20;;;;;;;4.53;2.72;;;;;;;;;;5005963;28;20061;-72
2023/11/21 11:27:07;;;;;;;8.18;2.35;;;;;;;;;;5008694;28;20056;-70
2023/11/21 11:30:05;;;;;;;6.53;3.00;;;;;;;;;;5006306;28;20033;-71
2023/11/21 11:33:13;;;;;;;5.63;2.10;;;;;;;;;;5010776;28;20036;-69
2023/11/21 11:35:57;;;;;;;5.88;2.45;;;;;;;;;;5019417;28;20116;-69
2023/11/21 11:38:33;;;;;;;3.92;2.40;;;;;;;;;;5011723;28;20497;-71
2023/11/21 11:41:04;;;;;;;12.30;6.45;;;;;;;;;;5015473;28;20415;-70
2023/11/21 11:43:37;;;;;;;9.73;3.28;;;;;;;;;;5034060;28;20088;-72
2023/11/21 11:46:08;;;;;;;6.22;2.53;;;;;;;;;;5009722;28;20029;-69
2023/11/21 11:48:44;;;;;;;6.47;2.33;;;;;;;;;;5014355;28;20485;-71
2023/11/21 11:51:17;;;;;;;3.88;2.25;;;;;;;;;;5014131;28;20038;-70
2023/11/21 11:53:47;;;;;;;5.85;2.45;;;;;;;;;;5019866;28;20339;-70
2023/11/21 11:56:34;;;;;;;4.88;2.00;;;;;;;;;;5031667;28;20030;-71
2023/11/21 11:59:03;;;;;;;6.45;2.42;;;;;;;;;;5014359;28;20022;-71
2023/11/21 12:01:53;;;;;;;5.32;2.72;;;;;;;;;;5006740;28;20037;-70
2023/11/21 12:04:23;;;;;;;4.57;2.30;;;;;;;;;;5028896;28;20033;-71
2023/11/21 12:06:54;;;;;;;7.18;3.45;;;;;;;;;;5013277;28;20112;-71
2023/11/21 12:09:31;;;;;;;5.85;3.13;;;;;;;;;;5019744;28;20033;-75
2023/11/21 12:12:06;;;;;;;4.85;3.40;;;;;;;;;;4982763;28;20121;-70
2023/11/21 12:14:55;;;;;;;7.72;3.70;;;;;;;;;;5021068;28;20041;-70
2023/11/21 12:17:23;;;;;;;3.60;2.33;;;;;;;;;;5019980;28;20045;-70
2023/11/21 12:20:14;;;;;;;5.25;2.65;;;;;;;;;;5031941;28;20076;-69
2023/11/21 12:22:48;;;;;;;5.30;2.25;;;;;;;;;;5020943;28;20021;-70
2023/11/21 12:25:36;;;;;;;4.88;2.30;;;;;;;;;;5031779;28;20030;-71
2023/11/21 12:28:03;;;;;;;3.67;2.35;;;;;;;;;;5008195;28;20519;-72
2023/11/21 12:30:40;;;;;;;8.55;2.78;;;;;;;;;;5012145;28;20025;-73
2023/11/21 12:33:09;;;;;;;5.25;3.03;;;;;;;;;;5010460;28;20036;-71
2023/11/21 12:35:35;;;;;;;9.55;3.22;;;;;;;;;;5025896;28;20041;-72
2023/11/21 12:38:09;;;;;;;5.22;2.60;;;;;;;;;;5018927;28;20788;-71
2023/11/21 12:40:35;;;;;;;5.15;2.10;;;;;;;;;;5012464;28;20060;-70
2023/11/21 12:43:07;;;;;;;9.23;3.28;;;;;;;;;;5006716;28;20495;-69
2023/11/21 12:45:34;;;;;;;9.52;2.92;;;;;;;;;;5007940;28;20049;-71
2023/11/21 12:48:07;;;;;;;5.95;2.92;;;;;;;;;;5019869;28;20050;-70
2023/11/21 12:50:41;;;;;;;4.40;2.78;;;;;;;;;;5012349;28;20324;-72
2023/11/21 12:53:24;;;;;;;9.55;3.80;;;;;;;;;;5017555;28;20042;-71
2023/11/21 12:56:00;;;;;;;7.20;4.28;;;;;;;;;;5008817;28;20069;-72
2023/11/21 12:58:33;;;;;;;5.72;3.70;;;;;;;;;;5016102;28;20087;-72
2023/11/21 13:01:18;;;;;;;7.70;3.30;;;;;;;;;;5015686;28;20045;-73
2023/11/21 13:03:51;;;;;;;10.18;3.25;;;;;;;;;;5014920;28;20656;-72
2023/11/21 13:06:25;;;;;;;3.75;2.50;;;;;;;;;;5007155;28;20054;-71
2023/11/21 13:08:59;;;;;;;4.75;2.63;;;;;;;;;;5009052;28;20033;-71
2023/11/21 13:11:42;;;;;;;6.38;3.20;;;;;;;;;;5013341;28;20048;-72
2023/11/21 13:14:11;;;;;;;5.00;2.80;;;;;;;;;;5014561;28;20041;-73
2023/11/21 13:16:48;;;;;;;5.68;2.60;;;;;;;;;;5006581;28;20028;-72
2023/11/21 13:19:24;;;;;;;4.68;2.90;;;;;;;;;;5005645;28;20112;-72
2023/11/21 13:21:50;;;;;;;8.25;3.10;;;;;;;;;;5001510;28;20350;-71
2023/11/21 13:24:17;;;;;;;8.90;3.53;;;;;;;;;;5009366;28;20133;-71
2023/11/21 13:26:47;;;;;;;9.30;3.22;;;;;;;;;;5008929;28;20017;-70
2023/11/21 13:29:17;;;;;;;5.38;3.20;;;;;;;;;;5019887;28;20026;-71
2023/11/21 13:31:49;;;;;;;8.27;3.80;;;;;;;;;;5015495;28;20037;-69
2023/11/21 13:34:19;;;;;;;6.35;3.42;;;;;;;;;;5010126;28;20151;-70
2023/11/21 13:36:45;;;;;;;6.00;3.03;;;;;;;;;;5008536;28;20029;-71
2023/11/21 13:39:17;;;;;;;9.93;4.35;;;;;;;;;;5007712;28;20501;-70
2023/11/21 13:41:48;;;;;;;6.28;3.00;;;;;;;;;;5010358;28;20108;-70
2023/11/21 13:44:26;;;;;;;8.07;4.32;;;;;;;;;;5010721;28;20045;-70
2023/11/21 13:46:53;;;;;;;9.15;3.67;;;;;;;;;;5008969;28;20474;-71
2023/11/21 13:49:26;;;;;;;10.60;3.50;;;;;;;;;;5022974;28;20027;-70
2023/11/21 13:52:03;;;;;;;5.93;3.85;;;;;;;;;;5010172;28;20498;-70
2023/11/21 13:54:30;;;;;;;8.95;4.65;;;;;;;;;;5030513;28;20045;-71
2023/11/21 13:56:57;;;;;;;8.68;4.22;;;;;;;;;;5029280;28;20034;-70
2023/11/21 13:59:33;;;;;;;9.07;3.60;;;;;;;;;;5013122;28;20026;-70
2023/11/21 14:02:12;;;;;;;6.43;3.33;;;;;;;;;;5029557;28;20115;-71
2023/11/21 14:04:54;;;;;;;5.80;3.83;;;;;;;;;;5008418;28;20030;-71
2023/11/21 14:07:47;;;;;;;4.53;3.47;;;;;;;;;;5017174;28;20034;-67
2023/11/21 14:10:14;;;;;;;6.57;3.40;;;;;;;;;;5010761;28;20379;-71
2023/11/21 14:12:42;;;;;;;18.42;8.68;;;;;;;;;;5022833;28;20104;-70
2023/11/21 14:15:10;;;;;;;9.65;4.40;;;;;;;;;;5014407;28;20079;-70
2023/11/21 14:17:38;;;;;;;9.82;4.10;;;;;;;;;;5006268;28;20030;-70
2023/11/21 14:20:05;;;;;;;7.60;4.30;;;;;;;;;;5008839;28;20069;-71
2023/11/21 14:22:31;;;;;;;7.53;4.10;;;;;;;;;;5011839;28;20387;-70
2023/11/21 14:24:59;;;;;;;6.97;4.00;;;;;;;;;;5009903;28;20041;-69
2023/11/21 14:27:28;;;;;;;8.07;4.07;;;;;;;;;;5012531;28;20152;-71
2023/11/21 14:29:57;;;;;;;11.60;4.65;;;;;;;;;;5010887;28;20041;-72
2023/11/21 14:32:25;;;;;;;8.23;4.35;;;;;;;;;;5011678;28;20034;-71
2023/11/21 14:34:54;;;;;;;7.50;3.90;;;;;;;;;;5008611;28;20758;-71
2023/11/21 14:37:21;;;;;;;7.60;3.72;;;;;;;;;;5011558;28;20490;-70
2023/11/21 14:39:49;;;;;;;7.45;3.60;;;;;;;;;;5010581;28;20035;-70
2023/11/21 14:42:29;;;;;;;11.10;3.35;;;;;;;;;;5009724;28;20038;-71
2023/11/21 14:45:02;;;;;;;9.50;3.75;;;;;;;;;;5013560;28;20037;-71
2023/11/21 14:47:32;;;;;;;7.65;3.80;;;;;;;;;;5020143;28;20042;-71
2023/11/21 14:50:26;;;;;;;5.63;3.58;;;;;;;;;;5029340;28;20037;-71
2023/11/21 14:52:59;;;;;;;4.90;3.40;;;;;;;;;;5025249;28;20466;-71
2023/11/21 14:55:31;;;;;;;6.72;3.90;;;;;;;;;;5027980;28;20108;-71